sensor_id;sensor_type;location;lat;lon;timestamp;pressure;altitude;pressure_sealevel;temperature;humidity
6345;BME280;3205;42.666;23.264;2023-06-24T00:01:18;94375.84;;;21.39;100.00
6345;BME280;3205;42.666;23.264;2023-06-24T00:03:45;94372.13;;;21.29;100.00
6345;BME280;3205;42.666;23.264;2023-06-24T00:06:12;94371.38;;;21.29;100.00
6345;BME280;3205;42.666;23.264;2023-06-24T00:08:43;94368.69;;;21.29;100.00
6345;BME280;3205;42.666;23.264;2023-06-24T00:11:10;94370.13;;;21.33;100.00
6345;BME280;3205;42.666;23.264;2023-06-24T00:13:36;94371.25;;;21.39;100.00
6345;BME280;3205;42.666;23.264;2023-06-24T00:16:03;94370.44;;;21.42;100.00
6345;BME280;3205;42.666;23.264;2023-06-24T00:18:31;94365.47;;;21.41;100.00
6345;BME280;3205;42.666;23.264;2023-06-24T00:20:58;94368.19;;;21.37;100.00
6345;BME280;3205;42.666;23.264;2023-06-24T00:23:27;94366.38;;;21.27;100.00
6345;BME280;3205;42.666;23.264;2023-06-24T00:25:54;94364.50;;;21.24;100.00
6345;BME280;3205;42.666;23.264;2023-06-24T00:28:20;94365.25;;;21.25;100.00
6345;BME280;3205;42.666;23.264;2023-06-24T00:30:47;94370.59;;;21.28;100.00
6345;BME280;3205;42.666;23.264;2023-06-24T00:33:13;94370.59;;;21.28;100.00
6345;BME280;3205;42.666;23.264;2023-06-24T00:35:39;94378.63;;;21.32;100.00
6345;BME280;3205;42.666;23.264;2023-06-24T00:38:06;94380.97;;;21.26;100.00
6345;BME280;3205;42.666;23.264;2023-06-24T00:40:32;94374.50;;;21.20;100.00
6345;BME280;3205;42.666;23.264;2023-06-24T00:42:59;94368.78;;;21.18;100.00
6345;BME280;3205;42.666;23.264;2023-06-24T00:45:27;94365.72;;;21.16;100.00
6345;BME280;3205;42.666;23.264;2023-06-24T00:47:55;94361.94;;;21.10;100.00
6345;BME280;3205;42.666;23.264;2023-06-24T00:50:22;94369.25;;;21.06;100.00
6345;BME280;3205;42.666;23.264;2023-06-24T00:52:48;94350.06;;;21.08;100.00
6345;BME280;3205;42.666;23.264;2023-06-24T00:55:16;94343.56;;;21.05;100.00
6345;BME280;3205;42.666;23.264;2023-06-24T00:57:43;94343.59;;;21.02;100.00
6345;BME280;3205;42.666;23.264;2023-06-24T01:00:11;94356.75;;;20.90;100.00
6345;BME280;3205;42.666;23.264;2023-06-24T01:02:39;94347.19;;;20.85;100.00
6345;BME280;3205;42.666;23.264;2023-06-24T01:05:08;94348.00;;;20.79;100.00
6345;BME280;3205;42.666;23.264;2023-06-24T01:07:35;94350.66;;;20.82;100.00
6345;BME280;3205;42.666;23.264;2023-06-24T01:10:03;94349.06;;;20.92;100.00
6345;BME280;3205;42.666;23.264;2023-06-24T01:12:33;94339.84;;;20.89;100.00
6345;BME280;3205;42.666;23.264;2023-06-24T01:14:59;94341.06;;;20.85;100.00
6345;BME280;3205;42.666;23.264;2023-06-24T01:17:31;94339.91;;;20.82;100.00
6345;BME280;3205;42.666;23.264;2023-06-24T01:20:04;94338.75;;;20.83;100.00
6345;BME280;3205;42.666;23.264;2023-06-24T01:26:03;94338.16;;;20.62;100.00
6345;BME280;3205;42.666;23.264;2023-06-24T01:28:57;94339.72;;;20.56;100.00
6345;BME280;3205;42.666;23.264;2023-06-24T01:31:38;94344.31;;;20.55;100.00
6345;BME280;3205;42.666;23.264;2023-06-24T01:34:12;94353.13;;;20.59;100.00
6345;BME280;3205;42.666;23.264;2023-06-24T01:36:45;94353.44;;;20.68;100.00
6345;BME280;3205;42.666;23.264;2023-06-24T01:39:16;94363.06;;;20.62;100.00
6345;BME280;3205;42.666;23.264;2023-06-24T01:41:46;94369.22;;;20.63;100.00
6345;BME280;3205;42.666;23.264;2023-06-24T01:44:13;94362.78;;;20.53;100.00
6345;BME280;3205;42.666;23.264;2023-06-24T01:46:44;94364.31;;;20.54;100.00
6345;BME280;3205;42.666;23.264;2023-06-24T01:49:13;94376.56;;;20.52;100.00
6345;BME280;3205;42.666;23.264;2023-06-24T01:51:41;94371.59;;;20.54;100.00
6345;BME280;3205;42.666;23.264;2023-06-24T01:54:13;94375.84;;;20.48;100.00
6345;BME280;3205;42.666;23.264;2023-06-24T01:56:43;94366.72;;;20.35;100.00
6345;BME280;3205;42.666;23.264;2023-06-24T01:59:10;94377.50;;;20.31;100.00
6345;BME280;3205;42.666;23.264;2023-06-24T02:01:38;94385.53;;;20.35;100.00
6345;BME280;3205;42.666;23.264;2023-06-24T02:04:08;94388.19;;;20.38;100.00
6345;BME280;3205;42.666;23.264;2023-06-24T02:06:36;94384.34;;;20.39;100.00
6345;BME280;3205;42.666;23.264;2023-06-24T02:09:05;94391.28;;;20.37;100.00
6345;BME280;3205;42.666;23.264;2023-06-24T02:11:33;94393.97;;;20.37;100.00
6345;BME280;3205;42.666;23.264;2023-06-24T02:14:01;94383.63;;;20.32;100.00
6345;BME280;3205;42.666;23.264;2023-06-24T02:16:29;94392.06;;;20.30;100.00
6345;BME280;3205;42.666;23.264;2023-06-24T02:18:56;94391.34;;;20.26;100.00
6345;BME280;3205;42.666;23.264;2023-06-24T02:21:24;94389.81;;;20.22;100.00
6345;BME280;3205;42.666;23.264;2023-06-24T02:23:52;94391.31;;;20.30;100.00
6345;BME280;3205;42.666;23.264;2023-06-24T02:26:18;94394.38;;;20.25;100.00
6345;BME280;3205;42.666;23.264;2023-06-24T02:28:45;94399.78;;;20.21;100.00
6345;BME280;3205;42.666;23.264;2023-06-24T02:31:12;94415.13;;;20.24;100.00
6345;BME280;3205;42.666;23.264;2023-06-24T02:33:39;94419.72;;;20.24;100.00
6345;BME280;3205;42.666;23.264;2023-06-24T02:36:05;94419.38;;;20.18;100.00
6345;BME280;3205;42.666;23.264;2023-06-24T02:38:32;94416.31;;;20.16;100.00
6345;BME280;3205;42.666;23.264;2023-06-24T02:40:58;94420.91;;;20.19;100.00
6345;BME280;3205;42.666;23.264;2023-06-24T02:43:26;94422.41;;;20.24;100.00
6345;BME280;3205;42.666;23.264;2023-06-24T02:45:53;94426.25;;;20.23;100.00
6345;BME280;3205;42.666;23.264;2023-06-24T02:48:20;94421.22;;;20.28;100.00
6345;BME280;3205;42.666;23.264;2023-06-24T02:50:47;94425.09;;;20.24;100.00
6345;BME280;3205;42.666;23.264;2023-06-24T02:53:14;94427.38;;;20.29;100.00
6345;BME280;3205;42.666;23.264;2023-06-24T02:55:43;94430.78;;;20.33;100.00
6345;BME280;3205;42.666;23.264;2023-06-24T02:58:10;94430.47;;;20.24;100.00
6345;BME280;3205;42.666;23.264;2023-06-24T03:00:37;94429.31;;;20.18;100.00
6345;BME280;3205;42.666;23.264;2023-06-24T03:03:04;94426.56;;;20.32;100.00
6345;BME280;3205;42.666;23.264;2023-06-24T03:05:32;94435.72;;;20.41;100.00
6345;BME280;3205;42.666;23.264;2023-06-24T03:07:59;94429.63;;;20.34;100.00
6345;BME280;3205;42.666;23.264;2023-06-24T03:10:26;94436.06;;;20.50;100.00
6345;BME280;3205;42.666;23.264;2023-06-24T03:12:53;94437.09;;;20.67;100.00
6345;BME280;3205;42.666;23.264;2023-06-24T03:15:19;94437.00;;;20.88;100.00
6345;BME280;3205;42.666;23.264;2023-06-24T03:17:46;94436.50;;;20.99;100.00
6345;BME280;3205;42.666;23.264;2023-06-24T03:20:12;94441.66;;;21.27;100.00
6345;BME280;3205;42.666;23.264;2023-06-24T03:22:38;94444.03;;;21.62;100.00
6345;BME280;3205;42.666;23.264;2023-06-24T03:25:05;94453.53;;;22.10;100.00
6345;BME280;3205;42.666;23.264;2023-06-24T03:27:31;94463.69;;;22.59;100.00
6345;BME280;3205;42.666;23.264;2023-06-24T03:30:00;94484.00;;;23.19;100.00
6345;BME280;3205;42.666;23.264;2023-06-24T03:32:26;94488.38;;;23.82;100.00
6345;BME280;3205;42.666;23.264;2023-06-24T03:34:54;94496.53;;;24.40;100.00
6345;BME280;3205;42.666;23.264;2023-06-24T03:37:20;94503.97;;;24.91;100.00
6345;BME280;3205;42.666;23.264;2023-06-24T03:39:46;94503.03;;;25.48;100.00
6345;BME280;3205;42.666;23.264;2023-06-24T03:42:12;94516.56;;;25.96;100.00
6345;BME280;3205;42.666;23.264;2023-06-24T03:44:38;94527.34;;;26.28;100.00
6345;BME280;3205;42.666;23.264;2023-06-24T03:47:05;94545.75;;;26.77;100.00
6345;BME280;3205;42.666;23.264;2023-06-24T03:49:31;94543.75;;;27.06;100.00
6345;BME280;3205;42.666;23.264;2023-06-24T03:51:57;94543.91;;;27.27;100.00
6345;BME280;3205;42.666;23.264;2023-06-24T03:54:23;94539.13;;;27.56;100.00
6345;BME280;3205;42.666;23.264;2023-06-24T03:56:50;94543.06;;;28.26;100.00
6345;BME280;3205;42.666;23.264;2023-06-24T03:59:16;94537.81;;;28.96;100.00
6345;BME280;3205;42.666;23.264;2023-06-24T04:01:42;94545.47;;;29.10;100.00
6345;BME280;3205;42.666;23.264;2023-06-24T04:04:09;94548.38;;;29.85;100.00
6345;BME280;3205;42.666;23.264;2023-06-24T04:06:35;94542.59;;;30.31;100.00
6345;BME280;3205;42.666;23.264;2023-06-24T04:09:01;94552.16;;;30.89;100.00
6345;BME280;3205;42.666;23.264;2023-06-24T04:11:27;94552.41;;;31.18;100.00
6345;BME280;3205;42.666;23.264;2023-06-24T04:13:54;94541.88;;;31.34;100.00
6345;BME280;3205;42.666;23.264;2023-06-24T04:16:20;94547.84;;;32.06;100.00
6345;BME280;3205;42.666;23.264;2023-06-24T04:18:46;94532.78;;;32.48;100.00
6345;BME280;3205;42.666;23.264;2023-06-24T04:21:13;94537.72;;;32.97;100.00
6345;BME280;3205;42.666;23.264;2023-06-24T04:23:40;94536.50;;;33.26;100.00
6345;BME280;3205;42.666;23.264;2023-06-24T04:26:06;94532.44;;;33.36;97.44
6345;BME280;3205;42.666;23.264;2023-06-24T04:28:32;94530.84;;;33.16;99.50
6345;BME280;3205;42.666;23.264;2023-06-24T04:30:58;94522.41;;;32.90;100.00
6345;BME280;3205;42.666;23.264;2023-06-24T04:33:24;94524.38;;;33.47;99.96
6345;BME280;3205;42.666;23.264;2023-06-24T04:35:50;94529.94;;;34.16;93.05
6345;BME280;3205;42.666;23.264;2023-06-24T04:38:17;94533.66;;;34.13;91.15
6345;BME280;3205;42.666;23.264;2023-06-24T04:40:44;94536.06;;;33.91;89.83
6345;BME280;3205;42.666;23.264;2023-06-24T04:43:10;94543.44;;;34.19;90.89
6345;BME280;3205;42.666;23.264;2023-06-24T04:45:36;94534.09;;;34.91;88.21
6345;BME280;3205;42.666;23.264;2023-06-24T04:48:02;94535.53;;;35.37;82.05
6345;BME280;3205;42.666;23.264;2023-06-24T04:50:28;94548.09;;;35.69;82.62
6345;BME280;3205;42.666;23.264;2023-06-24T04:52:55;94542.75;;;35.91;78.93
6345;BME280;3205;42.666;23.264;2023-06-24T04:55:23;94548.09;;;36.41;77.03
6345;BME280;3205;42.666;23.264;2023-06-24T04:57:49;94550.06;;;36.94;70.57
6345;BME280;3205;42.666;23.264;2023-06-24T05:00:16;94543.16;;;37.75;67.24
6345;BME280;3205;42.666;23.264;2023-06-24T05:02:42;94543.59;;;38.11;64.42
6345;BME280;3205;42.666;23.264;2023-06-24T05:05:08;94552.91;;;38.92;61.44
6345;BME280;3205;42.666;23.264;2023-06-24T05:07:34;94561.94;;;39.39;57.48
6345;BME280;3205;42.666;23.264;2023-06-24T05:10:00;94553.22;;;39.64;56.27
6345;BME280;3205;42.666;23.264;2023-06-24T05:12:27;94548.53;;;40.60;51.72
6345;BME280;3205;42.666;23.264;2023-06-24T05:14:53;94550.25;;;41.42;47.54
6345;BME280;3205;42.666;23.264;2023-06-24T05:17:20;94553.38;;;41.70;44.51
6345;BME280;3205;42.666;23.264;2023-06-24T05:19:46;94543.34;;;41.80;44.62
6345;BME280;3205;42.666;23.264;2023-06-24T05:22:12;94544.94;;;41.25;45.85
6345;BME280;3205;42.666;23.264;2023-06-24T05:24:38;94539.97;;;41.55;43.80
6345;BME280;3205;42.666;23.264;2023-06-24T05:27:06;94534.06;;;42.21;41.86
6345;BME280;3205;42.666;23.264;2023-06-24T05:29:33;94532.47;;;42.64;40.35
6345;BME280;3205;42.666;23.264;2023-06-24T05:32:00;94534.84;;;42.48;39.66
6345;BME280;3205;42.666;23.264;2023-06-24T05:34:27;94538.91;;;42.60;40.62
6345;BME280;3205;42.666;23.264;2023-06-24T05:36:54;94540.47;;;42.16;41.19
6345;BME280;3205;42.666;23.264;2023-06-24T05:39:20;94542.38;;;41.27;42.27
6345;BME280;3205;42.666;23.264;2023-06-24T05:41:46;94546.00;;;41.22;41.20
6345;BME280;3205;42.666;23.264;2023-06-24T05:44:14;94541.63;;;42.08;40.74
6345;BME280;3205;42.666;23.264;2023-06-24T05:46:41;94547.66;;;42.63;39.19
6345;BME280;3205;42.666;23.264;2023-06-24T05:49:07;94542.00;;;42.30;39.79
6345;BME280;3205;42.666;23.264;2023-06-24T05:51:33;94536.66;;;40.83;43.50
6345;BME280;3205;42.666;23.264;2023-06-24T05:53:59;94530.13;;;41.54;43.19
6345;BME280;3205;42.666;23.264;2023-06-24T05:56:25;94526.03;;;42.57;40.69
6345;BME280;3205;42.666;23.264;2023-06-24T05:58:51;94530.75;;;42.87;37.95
6345;BME280;3205;42.666;23.264;2023-06-24T06:01:18;94529.13;;;42.14;39.01
6345;BME280;3205;42.666;23.264;2023-06-24T06:03:44;94526.00;;;41.42;39.79
6345;BME280;3205;42.666;23.264;2023-06-24T06:06:11;94516.75;;;40.85;40.96
6345;BME280;3205;42.666;23.264;2023-06-24T06:08:37;94518.75;;;40.42;43.25
6345;BME280;3205;42.666;23.264;2023-06-24T06:11:03;94518.50;;;39.28;45.86
6345;BME280;3205;42.666;23.264;2023-06-24T06:13:29;94514.84;;;40.08;45.99
6345;BME280;3205;42.666;23.264;2023-06-24T06:15:55;94522.09;;;41.51;41.44
6345;BME280;3205;42.666;23.264;2023-06-24T06:18:22;94519.31;;;41.19;40.38
6345;BME280;3205;42.666;23.264;2023-06-24T06:20:50;94520.16;;;41.46;40.44
6345;BME280;3205;42.666;23.264;2023-06-24T06:23:16;94526.06;;;42.31;39.35
6345;BME280;3205;42.666;23.264;2023-06-24T06:25:42;94526.44;;;42.99;37.56
6345;BME280;3205;42.666;23.264;2023-06-24T06:28:09;94535.56;;;43.46;36.48
6345;BME280;3205;42.666;23.264;2023-06-24T06:30:35;94535.31;;;43.44;35.68
6345;BME280;3205;42.666;23.264;2023-06-24T06:33:02;94535.94;;;44.04;35.75
6345;BME280;3205;42.666;23.264;2023-06-24T06:35:28;94540.09;;;44.38;36.17
6345;BME280;3205;42.666;23.264;2023-06-24T06:37:57;94533.63;;;45.06;32.79
6345;BME280;3205;42.666;23.264;2023-06-24T06:40:23;94541.09;;;45.18;34.03
6345;BME280;3205;42.666;23.264;2023-06-24T06:42:50;94534.59;;;45.74;34.20
6345;BME280;3205;42.666;23.264;2023-06-24T06:45:16;94542.28;;;45.30;32.85
6345;BME280;3205;42.666;23.264;2023-06-24T06:47:42;94539.09;;;44.08;34.69
6345;BME280;3205;42.666;23.264;2023-06-24T06:50:08;94542.63;;;44.56;35.07
6345;BME280;3205;42.666;23.264;2023-06-24T06:52:34;94538.22;;;44.96;33.78
6345;BME280;3205;42.666;23.264;2023-06-24T06:55:01;94537.16;;;44.71;33.39
6345;BME280;3205;42.666;23.264;2023-06-24T06:57:27;94536.78;;;45.03;33.21
6345;BME280;3205;42.666;23.264;2023-06-24T06:59:53;94536.75;;;44.95;32.40
6345;BME280;3205;42.666;23.264;2023-06-24T07:02:20;94539.84;;;44.28;34.94
6345;BME280;3205;42.666;23.264;2023-06-24T07:04:46;94533.97;;;43.91;35.28
6345;BME280;3205;42.666;23.264;2023-06-24T07:07:13;94539.78;;;43.80;34.49
6345;BME280;3205;42.666;23.264;2023-06-24T07:09:39;94544.88;;;44.10;34.94
6345;BME280;3205;42.666;23.264;2023-06-24T07:12:07;94543.22;;;43.86;33.83
6345;BME280;3205;42.666;23.264;2023-06-24T07:14:33;94549.72;;;44.29;34.19
6345;BME280;3205;42.666;23.264;2023-06-24T07:17:00;94548.59;;;44.32;32.07
6345;BME280;3205;42.666;23.264;2023-06-24T07:19:26;94539.59;;;45.10;31.83
6345;BME280;3205;42.666;23.264;2023-06-24T07:21:52;94539.22;;;45.06;31.42
6345;BME280;3205;42.666;23.264;2023-06-24T07:24:18;94541.22;;;43.74;33.94
6345;BME280;3205;42.666;23.264;2023-06-24T07:26:44;94542.78;;;44.03;34.51
6345;BME280;3205;42.666;23.264;2023-06-24T07:29:11;94537.00;;;44.77;33.05
6345;BME280;3205;42.666;23.264;2023-06-24T07:31:37;94535.56;;;46.13;32.49
6345;BME280;3205;42.666;23.264;2023-06-24T07:34:03;94533.28;;;45.89;29.77
6345;BME280;3205;42.666;23.264;2023-06-24T07:36:30;94528.38;;;45.53;31.34
6345;BME280;3205;42.666;23.264;2023-06-24T07:38:56;94532.50;;;45.67;31.44
6345;BME280;3205;42.666;23.264;2023-06-24T07:41:22;94535.56;;;45.26;31.60
6345;BME280;3205;42.666;23.264;2023-06-24T07:43:48;94530.78;;;45.49;32.06
6345;BME280;3205;42.666;23.264;2023-06-24T07:46:15;94524.16;;;45.96;32.08
6345;BME280;3205;42.666;23.264;2023-06-24T07:48:42;94521.16;;;46.47;29.57
6345;BME280;3205;42.666;23.264;2023-06-24T07:51:08;94531.44;;;46.29;30.49
6345;BME280;3205;42.666;23.264;2023-06-24T07:53:34;94536.63;;;46.33;31.72
6345;BME280;3205;42.666;23.264;2023-06-24T07:56:00;94537.56;;;45.76;29.22
6345;BME280;3205;42.666;23.264;2023-06-24T07:58:26;94534.78;;;45.25;31.09
6345;BME280;3205;42.666;23.264;2023-06-24T08:00:53;94540.81;;;45.44;30.74
6345;BME280;3205;42.666;23.264;2023-06-24T08:03:19;94539.09;;;46.06;30.83
6345;BME280;3205;42.666;23.264;2023-06-24T08:05:47;94547.72;;;44.17;31.47
6345;BME280;3205;42.666;23.264;2023-06-24T08:08:15;94532.28;;;44.64;31.96
6345;BME280;3205;42.666;23.264;2023-06-24T08:10:43;94533.91;;;45.30;31.88
6345;BME280;3205;42.666;23.264;2023-06-24T08:13:09;94534.00;;;45.10;32.07
6345;BME280;3205;42.666;23.264;2023-06-24T08:15:35;94535.53;;;44.48;31.80
6345;BME280;3205;42.666;23.264;2023-06-24T08:18:01;94532.03;;;44.90;31.84
6345;BME280;3205;42.666;23.264;2023-06-24T08:20:28;94537.25;;;43.69;33.28
6345;BME280;3205;42.666;23.264;2023-06-24T08:22:54;94525.69;;;43.12;34.94
6345;BME280;3205;42.666;23.264;2023-06-24T08:25:20;94528.78;;;43.21;35.54
6345;BME280;3205;42.666;23.264;2023-06-24T08:27:46;94527.50;;;43.76;33.26
6345;BME280;3205;42.666;23.264;2023-06-24T08:30:13;94519.50;;;44.41;33.21
6345;BME280;3205;42.666;23.264;2023-06-24T08:32:41;94522.06;;;43.91;34.18
6345;BME280;3205;42.666;23.264;2023-06-24T08:35:08;94530.47;;;44.46;32.98
6345;BME280;3205;42.666;23.264;2023-06-24T08:37:36;94524.88;;;44.74;33.16
6345;BME280;3205;42.666;23.264;2023-06-24T08:40:03;94523.41;;;43.77;33.31
6345;BME280;3205;42.666;23.264;2023-06-24T08:42:30;94518.91;;;44.35;33.83
6345;BME280;3205;42.666;23.264;2023-06-24T08:44:56;94508.16;;;44.46;33.39
6345;BME280;3205;42.666;23.264;2023-06-24T08:47:23;94507.22;;;45.22;32.09
6345;BME280;3205;42.666;23.264;2023-06-24T08:49:53;94509.59;;;42.59;35.48
6345;BME280;3205;42.666;23.264;2023-06-24T08:52:25;94504.03;;;42.46;35.95
6345;BME280;3205;42.666;23.264;2023-06-24T08:54:58;94503.34;;;42.91;36.82
6345;BME280;3205;42.666;23.264;2023-06-24T08:57:25;94509.16;;;43.27;36.61
6345;BME280;3205;42.666;23.264;2023-06-24T08:59:51;94506.72;;;44.25;33.74
6345;BME280;3205;42.666;23.264;2023-06-24T09:02:18;94500.34;;;45.23;32.75
6345;BME280;3205;42.666;23.264;2023-06-24T09:04:44;94506.09;;;45.10;31.92
6345;BME280;3205;42.666;23.264;2023-06-24T09:07:10;94500.91;;;42.62;36.47
6345;BME280;3205;42.666;23.264;2023-06-24T09:09:42;94499.09;;;42.13;39.03
6345;BME280;3205;42.666;23.264;2023-06-24T09:12:13;94497.34;;;40.85;40.32
6345;BME280;3205;42.666;23.264;2023-06-24T09:14:39;94494.94;;;41.75;40.71
6345;BME280;3205;42.666;23.264;2023-06-24T09:17:06;94485.78;;;41.80;40.33
6345;BME280;3205;42.666;23.264;2023-06-24T09:19:34;94501.34;;;42.79;36.64
6345;BME280;3205;42.666;23.264;2023-06-24T09:22:03;94492.16;;;43.50;36.13
6345;BME280;3205;42.666;23.264;2023-06-24T09:24:30;94497.16;;;42.85;38.79
6345;BME280;3205;42.666;23.264;2023-06-24T09:26:56;94500.31;;;43.69;36.90
6345;BME280;3205;42.666;23.264;2023-06-24T09:29:26;94506.56;;;44.94;34.84
6345;BME280;3205;42.666;23.264;2023-06-24T09:31:52;94505.19;;;42.11;37.46
6345;BME280;3205;42.666;23.264;2023-06-24T09:34:19;94504.16;;;41.83;36.60
6345;BME280;3205;42.666;23.264;2023-06-24T09:36:50;94510.28;;;40.77;41.78
6345;BME280;3205;42.666;23.264;2023-06-24T09:39:17;94497.19;;;41.14;40.08
6345;BME280;3205;42.666;23.264;2023-06-24T09:41:43;94495.16;;;40.96;39.71
6345;BME280;3205;42.666;23.264;2023-06-24T09:44:11;94488.25;;;40.66;41.80
6345;BME280;3205;42.666;23.264;2023-06-24T09:46:38;94494.59;;;41.97;40.38
6345;BME280;3205;42.666;23.264;2023-06-24T09:49:04;94491.63;;;40.77;40.49
6345;BME280;3205;42.666;23.264;2023-06-24T09:51:32;94494.56;;;40.42;41.80
6345;BME280;3205;42.666;23.264;2023-06-24T09:54:03;94491.13;;;40.13;43.09
6345;BME280;3205;42.666;23.264;2023-06-24T09:56:30;94494.69;;;39.14;48.11
6345;BME280;3205;42.666;23.264;2023-06-24T09:58:56;94481.31;;;39.24;45.33
6345;BME280;3205;42.666;23.264;2023-06-24T10:01:24;94485.09;;;38.80;48.04
6345;BME280;3205;42.666;23.264;2023-06-24T10:03:52;94481.03;;;39.27;48.81
6345;BME280;3205;42.666;23.264;2023-06-24T10:06:19;94467.56;;;39.48;46.05
6345;BME280;3205;42.666;23.264;2023-06-24T10:08:46;94462.97;;;40.27;46.34
6345;BME280;3205;42.666;23.264;2023-06-24T10:11:12;94465.25;;;38.20;53.84
6345;BME280;3205;42.666;23.264;2023-06-24T10:13:38;94459.56;;;36.87;63.94
6345;BME280;3205;42.666;23.264;2023-06-24T10:16:04;94456.97;;;36.50;66.68
6345;BME280;3205;42.666;23.264;2023-06-24T10:18:35;94451.97;;;35.96;71.93
6345;BME280;3205;42.666;23.264;2023-06-24T10:21:02;94450.06;;;35.41;72.78
6345;BME280;3205;42.666;23.264;2023-06-24T10:23:34;94449.03;;;34.31;81.33
6345;BME280;3205;42.666;23.264;2023-06-24T10:26:07;94436.16;;;33.29;86.88
6345;BME280;3205;42.666;23.264;2023-06-24T10:29:08;94429.75;;;33.18;96.10
6345;BME280;3205;42.666;23.264;2023-06-24T10:31:53;94436.78;;;33.38;93.87
6345;BME280;3205;42.666;23.264;2023-06-24T10:34:28;94426.63;;;33.24;95.95
6345;BME280;3205;42.666;23.264;2023-06-24T10:36:55;94415.56;;;33.05;94.87
6345;BME280;3205;42.666;23.264;2023-06-24T10:39:50;94413.78;;;32.73;98.44
6345;BME280;3205;42.666;23.264;2023-06-24T10:42:33;94405.22;;;32.65;95.57
6345;BME280;3205;42.666;23.264;2023-06-24T10:45:14;94399.31;;;32.87;100.00
6345;BME280;3205;42.666;23.264;2023-06-24T10:47:42;94396.00;;;32.54;92.93
6345;BME280;3205;42.666;23.264;2023-06-24T10:50:10;94384.22;;;32.62;100.00
6345;BME280;3205;42.666;23.264;2023-06-24T10:52:38;94381.69;;;32.59;87.26
6345;BME280;3205;42.666;23.264;2023-06-24T10:55:06;94402.19;;;32.78;89.78
6345;BME280;3205;42.666;23.264;2023-06-24T10:57:33;94380.53;;;32.51;95.00
6345;BME280;3205;42.666;23.264;2023-06-24T11:00:01;94379.69;;;32.74;95.83
6345;BME280;3205;42.666;23.264;2023-06-24T11:02:28;94371.59;;;32.79;95.35
6345;BME280;3205;42.666;23.264;2023-06-24T11:04:56;94384.88;;;33.15;91.86
6345;BME280;3205;42.666;23.264;2023-06-24T11:07:24;94384.34;;;32.82;80.38
6345;BME280;3205;42.666;23.264;2023-06-24T11:09:52;94382.78;;;32.96;96.27
6345;BME280;3205;42.666;23.264;2023-06-24T11:12:18;94376.31;;;33.27;92.73
6345;BME280;3205;42.666;23.264;2023-06-24T11:14:45;94382.31;;;33.12;83.53
6345;BME280;3205;42.666;23.264;2023-06-24T11:17:11;94385.69;;;33.21;91.17
6345;BME280;3205;42.666;23.264;2023-06-24T11:19:38;94381.31;;;32.80;85.20
6345;BME280;3205;42.666;23.264;2023-06-24T11:22:06;94384.41;;;32.88;84.87
6345;BME280;3205;42.666;23.264;2023-06-24T11:24:33;94382.69;;;33.05;86.79
6345;BME280;3205;42.666;23.264;2023-06-24T11:27:00;94378.53;;;32.95;81.15
6345;BME280;3205;42.666;23.264;2023-06-24T11:29:28;94377.44;;;32.72;83.68
6345;BME280;3205;42.666;23.264;2023-06-24T11:31:55;94374.72;;;32.58;84.51
6345;BME280;3205;42.666;23.264;2023-06-24T11:34:21;94381.50;;;32.77;84.61
6345;BME280;3205;42.666;23.264;2023-06-24T11:36:48;94374.13;;;32.54;81.00
6345;BME280;3205;42.666;23.264;2023-06-24T11:39:23;94374.59;;;32.67;90.10
6345;BME280;3205;42.666;23.264;2023-06-24T11:41:50;94377.91;;;32.85;82.23
6345;BME280;3205;42.666;23.264;2023-06-24T11:44:18;94364.75;;;33.04;89.95
6345;BME280;3205;42.666;23.264;2023-06-24T11:46:45;94373.94;;;33.35;85.31
6345;BME280;3205;42.666;23.264;2023-06-24T11:49:11;94369.91;;;33.50;74.73
6345;BME280;3205;42.666;23.264;2023-06-24T11:51:45;94362.56;;;33.42;77.24
6345;BME280;3205;42.666;23.264;2023-06-24T11:54:14;94355.53;;;32.72;81.37
6345;BME280;3205;42.666;23.264;2023-06-24T11:56:42;94353.09;;;32.60;85.69
6345;BME280;3205;42.666;23.264;2023-06-24T11:59:16;94356.75;;;32.28;84.89
6345;BME280;3205;42.666;23.264;2023-06-24T12:01:44;94337.50;;;32.37;90.22
6345;BME280;3205;42.666;23.264;2023-06-24T12:04:13;94333.66;;;32.58;80.55
6345;BME280;3205;42.666;23.264;2023-06-24T12:06:39;94325.59;;;32.54;80.12
6345;BME280;3205;42.666;23.264;2023-06-24T12:09:06;94309.91;;;32.84;77.74
6345;BME280;3205;42.666;23.264;2023-06-24T12:11:32;94316.91;;;32.85;82.57
6345;BME280;3205;42.666;23.264;2023-06-24T12:13:58;94310.88;;;32.66;79.60
6345;BME280;3205;42.666;23.264;2023-06-24T12:16:24;94318.22;;;32.75;81.16
6345;BME280;3205;42.666;23.264;2023-06-24T12:18:53;94325.78;;;32.51;81.81
6345;BME280;3205;42.666;23.264;2023-06-24T12:21:19;94330.63;;;32.56;78.88
6345;BME280;3205;42.666;23.264;2023-06-24T12:23:45;94317.97;;;32.44;81.81
6345;BME280;3205;42.666;23.264;2023-06-24T12:26:12;94322.69;;;32.29;80.86
6345;BME280;3205;42.666;23.264;2023-06-24T12:28:38;94318.06;;;32.21;82.31
6345;BME280;3205;42.666;23.264;2023-06-24T12:31:05;94316.66;;;32.68;87.54
6345;BME280;3205;42.666;23.264;2023-06-24T12:33:31;94313.03;;;32.48;79.84
6345;BME280;3205;42.666;23.264;2023-06-24T12:35:58;94313.44;;;32.41;78.76
6345;BME280;3205;42.666;23.264;2023-06-24T12:38:25;94322.41;;;32.56;79.93
6345;BME280;3205;42.666;23.264;2023-06-24T12:40:51;94339.94;;;32.06;77.83
6345;BME280;3205;42.666;23.264;2023-06-24T12:43:18;94345.84;;;31.90;82.15
6345;BME280;3205;42.666;23.264;2023-06-24T12:45:44;94358.16;;;32.24;92.57
6345;BME280;3205;42.666;23.264;2023-06-24T12:48:10;94367.44;;;32.41;88.61
6345;BME280;3205;42.666;23.264;2023-06-24T12:50:36;94373.38;;;32.53;92.02
6345;BME280;3205;42.666;23.264;2023-06-24T12:53:03;94383.78;;;32.64;98.99
6345;BME280;3205;42.666;23.264;2023-06-24T12:55:30;94382.19;;;32.72;99.83
6345;BME280;3205;42.666;23.264;2023-06-24T12:57:56;94372.53;;;32.62;98.70
6345;BME280;3205;42.666;23.264;2023-06-24T13:00:23;94380.00;;;32.61;100.00
6345;BME280;3205;42.666;23.264;2023-06-24T13:02:50;94371.97;;;32.58;100.00
6345;BME280;3205;42.666;23.264;2023-06-24T13:05:16;94355.63;;;32.49;100.00
6345;BME280;3205;42.666;23.264;2023-06-24T13:07:43;94354.75;;;32.29;100.00
6345;BME280;3205;42.666;23.264;2023-06-24T13:10:10;94346.06;;;32.16;100.00
6345;BME280;3205;42.666;23.264;2023-06-24T13:12:36;94332.19;;;32.05;100.00